createdAt,value
2018-12-21T00:02:12.524Z,8.00
2018-12-21T00:04:42.205Z,8.00
2018-12-21T00:07:10.824Z,8.00
2018-12-21T00:09:39.524Z,8.00
2018-12-21T00:12:08.282Z,8.00
2018-12-21T00:14:36.993Z,8.00
2018-12-21T00:17:05.813Z,8.00
2018-12-21T00:19:34.915Z,8.00
2018-12-21T00:22:04.069Z,8.00
2018-12-21T00:24:33.653Z,8.00
2018-12-21T00:27:02.984Z,7.90
2018-12-21T00:29:31.597Z,7.90
2018-12-21T00:32:06.125Z,7.90
2018-12-21T00:34:40.495Z,7.90
2018-12-21T00:37:14.863Z,7.80
2018-12-21T00:39:48.694Z,7.80
2018-12-21T00:42:38.736Z,7.80
2018-12-21T00:45:12.200Z,7.80
2018-12-21T00:47:41.068Z,7.80
2018-12-21T00:50:10.651Z,7.80
2018-12-21T00:52:39.267Z,7.80
2018-12-21T00:55:08.115Z,7.80
2018-12-21T00:57:36.920Z,7.90
2018-12-21T01:00:07.221Z,7.90
2018-12-21T01:02:36.081Z,7.90
2018-12-21T01:05:04.941Z,7.90
2018-12-21T01:07:33.747Z,7.90
2018-12-21T01:10:03.313Z,7.90
2018-12-21T01:12:32.881Z,7.90
2018-12-21T01:15:01.703Z,7.90
2018-12-21T01:17:30.781Z,8.00
2018-12-21T01:19:59.736Z,8.00
2018-12-21T01:22:28.429Z,8.00
2018-12-21T01:24:57.415Z,8.00
2018-12-21T01:27:26.321Z,8.00
2018-12-21T01:29:55.857Z,8.00
2018-12-21T01:32:24.504Z,8.00
2018-12-21T01:34:53.601Z,8.00
2018-12-21T01:37:22.766Z,8.00
2018-12-21T01:39:52.188Z,8.00
2018-12-21T01:42:21.637Z,8.00
2018-12-21T01:44:50.213Z,8.00
2018-12-21T01:47:18.854Z,8.00
2018-12-21T01:49:47.538Z,8.00
2018-12-21T01:52:16.246Z,8.00
2018-12-21T01:54:44.967Z,8.10
2018-12-21T01:57:13.694Z,8.10
2018-12-21T01:59:42.500Z,8.10
2018-12-21T02:02:11.202Z,8.10
2018-12-21T02:04:39.896Z,8.10
2018-12-21T02:07:09.331Z,8.20
2018-12-21T02:09:37.995Z,8.20
2018-12-21T02:12:06.639Z,8.20
2018-12-21T02:14:36.046Z,8.20
2018-12-21T02:17:04.676Z,8.20
2018-12-21T02:19:34.055Z,8.20
2018-12-21T02:22:02.969Z,8.20
2018-12-21T02:24:32.370Z,8.20
2018-12-21T02:27:01.466Z,8.30
2018-12-21T02:29:30.329Z,8.30
2018-12-21T02:31:59.044Z,8.30
2018-12-21T02:34:28.233Z,8.30
2018-12-21T02:36:57.116Z,8.30
2018-12-21T02:39:26.544Z,8.30
2018-12-21T02:41:56.013Z,8.30
2018-12-21T02:44:24.900Z,8.40
2018-12-21T02:46:53.767Z,8.30
2018-12-21T02:49:22.561Z,8.30
2018-12-21T02:51:51.586Z,8.30
2018-12-21T02:54:20.197Z,8.30
2018-12-21T02:56:49.503Z,8.30
2018-12-21T02:59:18.590Z,8.30
2018-12-21T03:01:47.636Z,8.30
2018-12-21T03:04:17.087Z,8.20
2018-12-21T03:06:46.184Z,8.20
2018-12-21T03:09:15.180Z,8.20
2018-12-21T03:11:44.688Z,8.20
2018-12-21T03:14:13.447Z,8.20
2018-12-21T03:16:42.340Z,8.20
2018-12-21T03:19:11.212Z,8.10
2018-12-21T03:21:39.923Z,8.10
2018-12-21T03:24:08.519Z,8.10
2018-12-21T03:26:38.026Z,8.00
2018-12-21T03:29:06.878Z,8.00
2018-12-21T03:31:35.646Z,8.00
2018-12-21T03:34:04.473Z,8.00
2018-12-21T03:36:33.601Z,7.90
2018-12-21T03:39:02.543Z,7.90
2018-12-21T03:41:31.243Z,7.90
2018-12-21T03:44:00.665Z,7.90
2018-12-21T03:46:30.230Z,7.80
2018-12-21T03:48:58.961Z,7.90
2018-12-21T03:51:27.513Z,7.90
2018-12-21T03:53:57.202Z,7.90
2018-12-21T03:56:25.933Z,7.90
2018-12-21T03:58:57.641Z,7.90
2018-12-21T04:01:26.913Z,7.90
2018-12-21T04:03:56.383Z,8.00
2018-12-21T04:06:25.303Z,8.00
2018-12-21T04:08:54.303Z,8.00
2018-12-21T04:11:23.098Z,8.00
2018-12-21T04:13:52.583Z,8.00
2018-12-21T04:16:21.590Z,8.00
2018-12-21T04:18:50.441Z,8.00
2018-12-21T04:21:19.102Z,8.00
2018-12-21T04:23:47.956Z,8.00
2018-12-21T04:26:17.311Z,8.00
2018-12-21T04:28:46.757Z,8.00
2018-12-21T04:31:15.350Z,8.00
2018-12-21T04:33:43.990Z,8.00
2018-12-21T04:36:13.358Z,7.90
2018-12-21T04:38:43.167Z,7.90
2018-12-21T04:41:11.799Z,7.90
2018-12-21T04:43:41.134Z,7.90
2018-12-21T04:46:10.646Z,8.00
2018-12-21T04:48:39.377Z,8.00
2018-12-21T04:51:08.613Z,7.90
2018-12-21T04:53:38.341Z,7.90
2018-12-21T04:56:07.714Z,7.90
2018-12-21T04:58:37.151Z,7.90
2018-12-21T05:01:06.537Z,7.90
2018-12-21T05:03:35.475Z,7.90
2018-12-21T05:06:04.373Z,7.90
2018-12-21T05:08:33.049Z,7.80
2018-12-21T05:11:02.171Z,7.80
2018-12-21T05:13:31.735Z,7.80
2018-12-21T05:16:01.452Z,7.80
2018-12-21T05:18:30.119Z,7.80
2018-12-21T05:20:58.659Z,7.80
2018-12-21T05:23:27.540Z,7.80
2018-12-21T05:25:56.623Z,7.70
2018-12-21T05:28:26.067Z,7.70
2018-12-21T05:30:54.724Z,7.80
2018-12-21T05:33:23.482Z,7.70
2018-12-21T05:35:53.051Z,7.80
2018-12-21T05:38:22.329Z,7.80
2018-12-21T05:40:51.052Z,7.80
2018-12-21T05:43:20.381Z,7.80
2018-12-21T05:45:48.944Z,7.80
2018-12-21T05:48:17.732Z,7.80
2018-12-21T05:50:47.175Z,7.90
2018-12-21T05:53:17.715Z,7.90
2018-12-21T05:55:47.188Z,7.90
2018-12-21T05:58:15.937Z,7.90
2018-12-21T06:00:44.836Z,8.00
2018-12-21T06:03:13.404Z,8.00
2018-12-21T06:05:42.035Z,8.00
2018-12-21T06:08:10.597Z,8.10
2018-12-21T06:10:39.464Z,8.10
2018-12-21T06:13:09.037Z,8.10
2018-12-21T06:15:38.163Z,8.00
2018-12-21T06:18:07.081Z,8.10
2018-12-21T06:20:36.287Z,8.10
2018-12-21T06:23:09.497Z,8.10
2018-12-21T06:25:36.882Z,8.10
2018-12-21T06:28:06.363Z,8.10
2018-12-21T06:30:35.368Z,8.10
2018-12-21T06:33:04.432Z,8.10
2018-12-21T06:35:33.923Z,8.00
2018-12-21T06:38:02.524Z,8.10
2018-12-21T06:40:31.677Z,8.00
2018-12-21T06:43:00.544Z,8.00
2018-12-21T06:45:29.188Z,8.00
2018-12-21T06:47:58.400Z,7.90
2018-12-21T06:50:27.042Z,7.80
2018-12-21T06:52:56.412Z,7.80
2018-12-21T06:55:25.163Z,7.80
2018-12-21T06:57:54.157Z,7.80
2018-12-21T07:00:23.123Z,7.90
2018-12-21T07:02:52.105Z,7.80
2018-12-21T07:05:20.955Z,7.80
2018-12-21T07:07:49.896Z,7.90
2018-12-21T07:10:18.794Z,7.80
2018-12-21T07:12:48.305Z,7.80
2018-12-21T07:15:17.728Z,7.80
2018-12-21T07:17:46.408Z,7.90
2018-12-21T07:20:15.826Z,7.90
2018-12-21T07:22:47.683Z,7.90
2018-12-21T07:25:18.043Z,8.00
2018-12-21T07:27:47.397Z,8.10
2018-12-21T07:30:17.507Z,8.10
2018-12-21T07:32:46.315Z,8.20
2018-12-21T07:35:16.904Z,8.20
2018-12-21T07:37:46.181Z,8.20
2018-12-21T07:40:15.098Z,8.20
2018-12-21T07:42:44.711Z,8.20
2018-12-21T07:45:13.727Z,8.20
2018-12-21T07:47:42.740Z,8.30
2018-12-21T07:50:12.304Z,8.70
2018-12-21T07:52:41.701Z,8.80
2018-12-21T07:55:11.594Z,8.90
2018-12-21T07:57:40.295Z,9.00
2018-12-21T08:00:12.650Z,8.90
2018-12-21T08:02:42.170Z,8.80
2018-12-21T08:05:11.469Z,8.70
2018-12-21T08:07:40.240Z,8.50
2018-12-21T08:10:15.332Z,8.40
2018-12-21T08:12:44.062Z,8.30
2018-12-21T08:15:13.449Z,8.20
2018-12-21T08:17:43.004Z,8.10
2018-12-21T08:20:11.945Z,7.90
2018-12-21T08:22:41.216Z,7.90
2018-12-21T08:25:10.781Z,7.80
2018-12-21T08:27:40.257Z,7.70
2018-12-21T08:30:10.427Z,7.70
2018-12-21T08:32:40.177Z,7.60
2018-12-21T08:35:09.529Z,7.60
2018-12-21T08:37:38.521Z,7.60
2018-12-21T08:40:09.235Z,7.60
2018-12-21T08:42:37.838Z,7.60
2018-12-21T08:45:09.044Z,7.50
2018-12-21T08:47:37.741Z,7.50
2018-12-21T08:50:10.047Z,7.60
2018-12-21T08:52:39.383Z,7.50
2018-12-21T08:55:08.461Z,7.50
2018-12-21T08:57:37.096Z,7.50
2018-12-21T09:00:08.440Z,7.50
2018-12-21T09:02:37.891Z,7.50
2018-12-21T09:05:07.281Z,7.50
2018-12-21T09:07:37.333Z,7.50
2018-12-21T09:10:08.292Z,7.50
2018-12-21T09:12:38.273Z,7.50
2018-12-21T09:15:10.579Z,7.50
2018-12-21T09:17:39.675Z,7.50
2018-12-21T09:20:10.196Z,7.50
2018-12-21T09:22:39.274Z,7.50
2018-12-21T09:25:08.439Z,7.50
2018-12-21T09:27:38.068Z,7.50
2018-12-21T09:30:11.467Z,7.50
2018-12-21T09:32:40.588Z,7.50
2018-12-21T09:35:09.537Z,7.50
2018-12-21T09:37:38.382Z,7.40
2018-12-21T09:40:10.532Z,7.40
2018-12-21T09:42:40.171Z,7.40
2018-12-21T09:45:09.196Z,7.40
2018-12-21T09:47:37.905Z,7.40
2018-12-21T09:50:08.791Z,7.40
2018-12-21T09:52:38.272Z,7.40
2018-12-21T09:55:08.868Z,7.40
2018-12-21T09:57:38.486Z,7.40
2018-12-21T10:00:11.040Z,7.40
2018-12-21T10:02:41.448Z,7.50
2018-12-21T10:05:14.630Z,7.50
2018-12-21T10:07:44.198Z,7.50
2018-12-21T10:10:13.379Z,7.40
2018-12-21T10:12:42.578Z,7.40
2018-12-21T10:15:11.268Z,7.40
2018-12-21T10:17:40.652Z,7.40
2018-12-21T10:20:09.984Z,7.50
2018-12-21T10:22:39.773Z,7.40
2018-12-21T10:25:08.735Z,7.40
2018-12-21T10:27:37.786Z,7.40
2018-12-21T10:30:09.217Z,7.40
2018-12-21T10:32:38.120Z,7.40
2018-12-21T10:35:07.299Z,7.50
2018-12-21T10:37:35.991Z,7.50
2018-12-21T10:40:05.328Z,7.50
2018-12-21T10:42:34.581Z,7.50
2018-12-21T10:45:03.576Z,7.60
2018-12-21T10:47:33.112Z,7.60
2018-12-21T10:50:02.700Z,7.60
2018-12-21T10:52:32.851Z,7.70
2018-12-21T10:55:01.987Z,7.70
2018-12-21T10:57:30.749Z,7.80
2018-12-21T11:00:00.113Z,7.80
2018-12-21T11:02:29.164Z,7.80
2018-12-21T11:04:57.879Z,7.80
2018-12-21T11:07:26.630Z,7.80
2018-12-21T11:09:56.317Z,7.80
2018-12-21T11:12:24.920Z,7.80
2018-12-21T11:14:54.362Z,7.80
2018-12-21T11:17:23.893Z,7.70
2018-12-21T11:19:52.898Z,7.70
2018-12-21T11:22:21.772Z,7.70
2018-12-21T11:24:50.402Z,7.70
2018-12-21T11:27:20.088Z,7.70
2018-12-21T11:29:49.650Z,7.60
2018-12-21T11:32:20.086Z,7.60
2018-12-21T11:34:48.862Z,7.70
2018-12-21T11:37:17.947Z,7.60
2018-12-21T11:39:46.814Z,7.60
2018-12-21T11:42:16.100Z,7.60
2018-12-21T11:44:44.700Z,7.60
2018-12-21T11:47:14.354Z,7.50
2018-12-21T11:49:42.941Z,7.50
2018-12-21T11:52:12.206Z,7.50
2018-12-21T11:54:44.458Z,7.60
2018-12-21T11:57:12.403Z,7.60
2018-12-21T11:59:45.019Z,7.60
2018-12-21T12:02:19.537Z,7.60
2018-12-21T12:04:43.265Z,7.70
2018-12-21T12:07:12.504Z,7.70
2018-12-21T12:09:41.356Z,7.70
2018-12-21T12:12:10.520Z,7.70
2018-12-21T12:14:39.856Z,7.80
2018-12-21T12:17:08.642Z,7.80
2018-12-21T12:19:37.327Z,7.90
2018-12-21T12:22:06.447Z,7.90
2018-12-21T12:24:35.570Z,7.90
2018-12-21T12:27:04.400Z,8.00
2018-12-21T12:29:33.227Z,7.90
2018-12-21T12:32:02.047Z,7.90
2018-12-21T12:34:31.062Z,7.90
2018-12-21T12:37:00.474Z,7.80
2018-12-21T12:39:29.855Z,7.80
2018-12-21T12:41:59.509Z,7.80
2018-12-21T12:44:28.924Z,7.70
2018-12-21T12:46:58.505Z,7.70
2018-12-21T12:49:28.068Z,7.70
2018-12-21T12:51:56.880Z,7.70
2018-12-21T12:54:26.016Z,7.70
2018-12-21T12:56:55.103Z,7.70
2018-12-21T12:59:24.042Z,7.70
2018-12-21T13:01:53.696Z,7.80
2018-12-21T13:04:23.228Z,7.80
2018-12-21T13:06:52.748Z,7.80
2018-12-21T13:09:22.407Z,7.90
2018-12-21T13:11:51.954Z,7.90
2018-12-21T13:14:21.387Z,8.00
2018-12-21T13:16:50.640Z,8.00
2018-12-21T13:19:20.053Z,8.00
2018-12-21T13:21:49.001Z,8.00
2018-12-21T13:24:18.496Z,8.00
2018-12-21T13:26:48.101Z,7.90
2018-12-21T13:29:16.920Z,7.80
2018-12-21T13:31:45.986Z,7.80
2018-12-21T13:34:14.699Z,7.70
2018-12-21T13:36:44.562Z,7.70
2018-12-21T13:39:13.796Z,7.70
2018-12-21T13:41:43.039Z,7.60
2018-12-21T13:44:12.868Z,7.60
2018-12-21T13:46:41.644Z,7.60
2018-12-21T13:49:10.249Z,7.60
2018-12-21T13:51:39.176Z,7.50
2018-12-21T13:54:08.177Z,7.40
2018-12-21T13:56:37.203Z,7.50
2018-12-21T13:59:06.156Z,7.40
2018-12-21T14:01:35.281Z,7.40
2018-12-21T14:04:04.370Z,7.40
2018-12-21T14:06:33.945Z,7.40
2018-12-21T14:09:03.911Z,7.40
2018-12-21T14:11:32.882Z,7.40
2018-12-21T14:14:01.661Z,7.40
2018-12-21T14:16:30.860Z,7.40
2018-12-21T14:18:59.891Z,7.30
2018-12-21T14:21:28.857Z,7.30
2018-12-21T14:23:57.930Z,7.30
2018-12-21T14:26:27.166Z,7.30
2018-12-21T14:28:56.108Z,7.30
2018-12-21T14:31:25.482Z,7.30
2018-12-21T14:33:55.429Z,7.30
2018-12-21T14:36:24.184Z,7.20
2018-12-21T14:38:52.841Z,7.20
2018-12-21T14:41:21.695Z,7.20
2018-12-21T14:43:50.659Z,7.30
2018-12-21T14:46:19.759Z,7.30
2018-12-21T14:48:49.021Z,7.30
2018-12-21T14:51:18.522Z,7.30
2018-12-21T14:53:47.412Z,7.30
2018-12-21T14:56:16.159Z,7.20
2018-12-21T14:58:45.703Z,7.20
2018-12-21T15:01:14.886Z,7.30
2018-12-21T15:03:44.269Z,7.30
2018-12-21T15:06:12.912Z,7.30
2018-12-21T15:08:41.885Z,7.30
2018-12-21T15:11:10.881Z,7.40
2018-12-21T15:13:39.932Z,7.40
2018-12-21T15:16:08.750Z,7.40
2018-12-21T15:18:37.858Z,7.40
2018-12-21T15:21:06.788Z,7.50
2018-12-21T15:23:35.712Z,7.50
2018-12-21T15:26:04.707Z,7.50
2018-12-21T15:28:33.524Z,7.60
2018-12-21T15:31:02.400Z,7.60
2018-12-21T15:33:31.323Z,7.60
2018-12-21T15:36:00.979Z,7.60
2018-12-21T15:38:30.622Z,7.70
2018-12-21T15:40:59.963Z,7.70
2018-12-21T15:43:28.834Z,7.80
2018-12-21T15:45:57.977Z,7.80
2018-12-21T15:48:26.583Z,7.80
2018-12-21T15:50:55.204Z,7.90
2018-12-21T15:53:24.673Z,7.90
2018-12-21T15:55:54.944Z,7.90
2018-12-21T15:58:25.209Z,8.00
2018-12-21T16:00:54.432Z,8.00
2018-12-21T16:03:23.939Z,8.10
2018-12-21T16:05:53.318Z,8.10
2018-12-21T16:08:23.006Z,8.10
2018-12-21T16:10:52.161Z,8.20
2018-12-21T16:13:21.517Z,8.20
2018-12-21T16:15:50.891Z,8.20
2018-12-21T16:18:19.857Z,8.30
2018-12-21T16:20:49.274Z,8.30
2018-12-21T16:23:18.196Z,8.30
2018-12-21T16:25:47.806Z,8.30
2018-12-21T16:28:16.648Z,8.40
2018-12-21T16:30:45.627Z,8.40
2018-12-21T16:33:17.827Z,8.40
2018-12-21T16:35:47.722Z,8.50
2018-12-21T16:38:16.691Z,8.50
2018-12-21T16:40:45.858Z,8.50
2018-12-21T16:43:15.132Z,8.50
2018-12-21T16:45:44.192Z,8.60
2018-12-21T16:48:14.174Z,8.60
2018-12-21T16:50:42.822Z,8.70
2018-12-21T16:53:12.285Z,8.70
2018-12-21T16:55:41.808Z,8.70
2018-12-21T16:58:11.191Z,8.80
2018-12-21T17:00:41.036Z,8.80
2018-12-21T17:03:16.367Z,8.80
2018-12-21T17:05:45.843Z,8.80
2018-12-21T17:08:15.473Z,8.80
2018-12-21T17:10:45.068Z,8.90
2018-12-21T17:13:14.096Z,8.90
2018-12-21T17:15:43.079Z,8.90
2018-12-21T17:18:12.728Z,8.90
2018-12-21T17:20:42.708Z,9.00
2018-12-21T17:23:11.276Z,9.00
2018-12-21T17:25:40.393Z,9.00
2018-12-21T17:28:09.980Z,9.10
2018-12-21T17:30:39.617Z,9.10
2018-12-21T17:33:08.487Z,9.10
2018-12-21T17:35:37.600Z,9.10
2018-12-21T17:38:07.156Z,9.10
2018-12-21T17:40:36.576Z,9.10
2018-12-21T17:43:05.808Z,9.10
2018-12-21T17:45:34.597Z,9.10
2018-12-21T17:48:03.841Z,9.10
2018-12-21T17:50:32.774Z,9.10
2018-12-21T17:53:02.196Z,9.10
2018-12-21T17:55:30.808Z,9.10
2018-12-21T17:58:00.464Z,9.10
2018-12-21T18:00:29.563Z,9.20
2018-12-21T18:02:59.170Z,9.10
2018-12-21T18:05:28.042Z,9.10
2018-12-21T18:07:57.776Z,9.10
2018-12-21T18:10:26.680Z,9.10
2018-12-21T18:12:55.575Z,9.10
2018-12-21T18:15:25.078Z,9.10
2018-12-21T18:17:53.684Z,9.10
2018-12-21T18:20:23.291Z,9.10
2018-12-21T18:22:53.056Z,9.10
2018-12-21T18:25:25.376Z,9.10
2018-12-21T18:27:56.977Z,9.10
2018-12-21T18:30:36.041Z,9.10
2018-12-21T18:33:10.961Z,9.10
2018-12-21T18:35:39.153Z,9.10
2018-12-21T18:38:12.767Z,9.10
2018-12-21T18:40:42.227Z,9.10
2018-12-21T18:43:17.455Z,9.10
2018-12-21T18:45:47.305Z,9.10
2018-12-21T18:48:16.156Z,9.10
2018-12-21T18:50:45.080Z,9.10
2018-12-21T18:53:14.369Z,9.10
2018-12-21T18:55:44.464Z,9.20
2018-12-21T18:58:13.703Z,9.20
2018-12-21T19:00:42.583Z,9.20
2018-12-21T19:03:11.292Z,9.20
2018-12-21T19:05:40.611Z,9.30
2018-12-21T19:08:10.118Z,9.30
2018-12-21T19:10:39.813Z,9.20
2018-12-21T19:13:09.396Z,9.30
2018-12-21T19:15:38.037Z,9.30
2018-12-21T19:18:06.751Z,9.30
2018-12-21T19:20:35.859Z,9.30
2018-12-21T19:23:04.608Z,9.30
2018-12-21T19:25:33.691Z,9.40
2018-12-21T19:28:03.140Z,9.40
2018-12-21T19:30:32.035Z,9.50
2018-12-21T19:33:01.645Z,9.40
2018-12-21T19:35:32.172Z,9.40
2018-12-21T19:38:01.748Z,9.40
2018-12-21T19:40:31.368Z,9.30
2018-12-21T19:43:00.825Z,9.40
2018-12-21T19:45:29.544Z,9.30
2018-12-21T19:47:58.269Z,9.30
2018-12-21T19:50:26.947Z,9.30
2018-12-21T19:52:55.550Z,9.40
2018-12-21T19:55:32.148Z,9.40
2018-12-21T19:58:02.066Z,9.40
2018-12-21T20:00:30.638Z,9.40
2018-12-21T20:02:59.490Z,9.40
2018-12-21T20:05:28.189Z,9.40
2018-12-21T20:07:57.001Z,9.40
2018-12-21T20:10:25.853Z,9.40
2018-12-21T20:12:54.869Z,9.40
2018-12-21T20:15:23.757Z,9.40
2018-12-21T20:17:52.736Z,9.40
2018-12-21T20:20:21.828Z,9.40
2018-12-21T20:22:51.430Z,9.40
2018-12-21T20:25:20.124Z,9.40
2018-12-21T20:27:49.217Z,9.40
2018-12-21T20:30:19.967Z,9.40
2018-12-21T20:32:49.685Z,9.40
2018-12-21T20:35:19.329Z,9.40
2018-12-21T20:37:48.206Z,9.40
2018-12-21T20:40:17.255Z,9.40
2018-12-21T20:42:46.867Z,9.40
2018-12-21T20:45:15.662Z,9.40
2018-12-21T20:47:44.475Z,9.40
2018-12-21T20:50:15.655Z,9.40
2018-12-21T20:52:44.960Z,9.40
2018-12-21T20:55:14.588Z,9.40
2018-12-21T20:57:45.575Z,9.40
2018-12-21T21:00:15.654Z,9.30
2018-12-21T21:02:45.117Z,9.40
2018-12-21T21:05:13.901Z,9.40
2018-12-21T21:07:43.081Z,9.30
2018-12-21T21:10:12.702Z,9.30
2018-12-21T21:12:41.839Z,9.40
2018-12-21T21:15:12.111Z,9.40
2018-12-21T21:17:40.905Z,9.40
2018-12-21T21:20:12.566Z,9.40
2018-12-21T21:22:41.400Z,9.40
2018-12-21T21:25:10.114Z,9.40
2018-12-21T21:27:39.569Z,9.40
2018-12-21T21:30:13.003Z,9.40
2018-12-21T21:32:41.714Z,9.40
2018-12-21T21:35:10.837Z,9.40
2018-12-21T21:37:40.679Z,9.40
2018-12-21T21:40:14.963Z,9.40
2018-12-21T21:42:43.617Z,9.40
2018-12-21T21:45:12.980Z,9.40
2018-12-21T21:47:42.605Z,9.40
2018-12-21T21:50:12.450Z,9.50
2018-12-21T21:52:41.383Z,9.50
2018-12-21T21:55:10.533Z,9.60
2018-12-21T21:57:39.838Z,9.60
2018-12-21T22:00:11.980Z,9.60
2018-12-21T22:02:41.058Z,9.60
2018-12-21T22:05:09.809Z,9.70
2018-12-21T22:07:39.028Z,9.70
2018-12-21T22:10:10.844Z,9.70
2018-12-21T22:12:39.813Z,9.70
2018-12-21T22:15:09.903Z,9.70
2018-12-21T22:17:38.745Z,9.70
2018-12-21T22:20:10.954Z,9.70
2018-12-21T22:22:39.515Z,9.80
2018-12-21T22:25:08.917Z,9.80
2018-12-21T22:27:37.913Z,9.80
2018-12-21T22:30:10.007Z,9.80
2018-12-21T22:32:38.990Z,9.80
2018-12-21T22:35:08.888Z,9.80
2018-12-21T22:37:37.677Z,9.80
2018-12-21T22:40:08.023Z,9.80
2018-12-21T22:42:37.322Z,9.80
2018-12-21T22:45:07.388Z,9.80
2018-12-21T22:47:36.372Z,9.80
2018-12-21T22:50:06.536Z,9.90
2018-12-21T22:52:35.643Z,9.90
2018-12-21T22:55:05.237Z,10.00
2018-12-21T22:57:33.850Z,10.00
2018-12-21T23:00:04.711Z,10.00
2018-12-21T23:02:33.853Z,10.10
2018-12-21T23:05:02.641Z,10.10
2018-12-21T23:07:31.737Z,10.20
2018-12-21T23:10:01.741Z,10.20
2018-12-21T23:12:30.461Z,10.20
2018-12-21T23:14:59.486Z,10.30
2018-12-21T23:17:29.041Z,10.30
2018-12-21T23:19:57.738Z,10.30
2018-12-21T23:22:27.455Z,10.40
2018-12-21T23:24:56.150Z,10.50
2018-12-21T23:27:25.102Z,10.60
2018-12-21T23:29:53.739Z,10.50
2018-12-21T23:32:22.996Z,10.60
2018-12-21T23:34:52.709Z,10.70
2018-12-21T23:37:21.460Z,10.80
2018-12-21T23:39:51.216Z,10.80
2018-12-21T23:42:20.119Z,10.90
2018-12-21T23:44:49.164Z,10.90
2018-12-21T23:47:18.325Z,11.00
2018-12-21T23:49:47.276Z,11.10
2018-12-21T23:52:16.199Z,11.10
2018-12-21T23:54:46.012Z,11.10
2018-12-21T23:57:15.143Z,11.10
2018-12-21T23:59:45.017Z,11.20
